createdAt,value
2019-04-16T00:00:45.958Z,4.97
2019-04-16T00:01:46.084Z,4.99
2019-04-16T00:02:48.530Z,4.99
2019-04-16T00:03:45.881Z,4.96
2019-04-16T00:04:45.776Z,4.92
2019-04-16T00:05:45.996Z,4.90
2019-04-16T00:06:45.948Z,4.87
2019-04-16T00:07:46.108Z,4.83
2019-04-16T00:08:46.006Z,4.78
2019-04-16T00:09:45.705Z,4.73
2019-04-16T00:10:45.939Z,4.69
2019-04-16T00:11:46.140Z,4.67
2019-04-16T00:12:46.068Z,4.64
2019-04-16T00:13:48.042Z,4.62
2019-04-16T00:14:45.543Z,4.57
2019-04-16T00:15:45.999Z,4.53
2019-04-16T00:16:46.167Z,4.49
2019-04-16T00:17:47.245Z,4.44
2019-04-16T00:18:56.641Z,4.42
2019-04-16T00:19:46.084Z,4.39
2019-04-16T00:20:45.677Z,4.37
2019-04-16T00:21:46.096Z,4.35
2019-04-16T00:22:46.003Z,4.35
2019-04-16T00:23:46.821Z,4.35
2019-04-16T00:24:45.507Z,4.37
2019-04-16T00:25:45.401Z,4.41
2019-04-16T00:26:46.025Z,4.38
2019-04-16T00:27:45.526Z,4.35
2019-04-16T00:28:46.103Z,4.32
2019-04-16T00:29:46.164Z,4.29
2019-04-16T00:30:45.559Z,4.28
2019-04-16T00:31:46.184Z,4.26
2019-04-16T00:32:46.171Z,4.25
2019-04-16T00:33:46.085Z,4.23
2019-04-16T00:34:46.198Z,4.21
2019-04-16T00:35:46.612Z,4.19
2019-04-16T00:36:48.426Z,4.16
2019-04-16T00:37:46.011Z,4.13
2019-04-16T00:38:46.111Z,4.12
2019-04-16T00:39:45.710Z,4.11
2019-04-16T00:40:45.991Z,4.09
2019-04-16T00:41:46.033Z,4.06
2019-04-16T00:42:45.429Z,4.04
2019-04-16T00:43:46.168Z,4.04
2019-04-16T00:44:45.647Z,4.02
2019-04-16T00:45:46.153Z,4.00
2019-04-16T00:46:46.168Z,3.98
2019-04-16T00:47:47.944Z,3.95
2019-04-16T00:48:46.281Z,3.92
2019-04-16T00:49:46.078Z,3.89
2019-04-16T00:50:45.579Z,3.85
2019-04-16T00:51:45.993Z,3.80
2019-04-16T00:52:46.211Z,3.76
2019-04-16T00:53:45.697Z,3.72
2019-04-16T00:54:45.471Z,3.69
2019-04-16T00:55:45.921Z,3.67
2019-04-16T00:56:46.651Z,3.64
2019-04-16T00:57:48.551Z,3.63
2019-04-16T00:58:46.043Z,3.59
2019-04-16T00:59:46.171Z,3.56
2019-04-16T01:00:46.571Z,3.54
2019-04-16T01:01:46.156Z,3.51
2019-04-16T01:02:47.091Z,3.49
2019-04-16T01:03:46.040Z,3.47
2019-04-16T01:04:46.100Z,3.46
2019-04-16T01:05:45.423Z,3.45
2019-04-16T01:06:46.095Z,3.43
2019-04-16T01:07:46.005Z,3.41
2019-04-16T01:08:54.398Z,3.39
2019-04-16T01:09:46.119Z,3.39
2019-04-16T01:10:46.095Z,3.39
2019-04-16T01:11:46.095Z,3.38
2019-04-16T01:12:46.040Z,3.37
2019-04-16T01:13:48.571Z,3.36
2019-04-16T01:14:46.012Z,3.36
2019-04-16T01:15:46.056Z,3.40
2019-04-16T01:16:46.069Z,3.41
2019-04-16T01:17:45.975Z,3.41
2019-04-16T01:18:46.077Z,3.38
2019-04-16T01:19:46.177Z,3.37
2019-04-16T01:20:45.576Z,3.36
2019-04-16T01:21:46.410Z,3.36
2019-04-16T01:22:46.875Z,3.34
2019-04-16T01:23:48.432Z,3.32
2019-04-16T01:24:45.713Z,3.32
2019-04-16T01:25:46.027Z,3.31
2019-04-16T01:26:46.498Z,3.28
2019-04-16T01:27:46.127Z,3.28
2019-04-16T01:28:46.149Z,3.27
2019-04-16T01:29:45.739Z,3.28
2019-04-16T01:30:46.065Z,3.28
2019-04-16T01:31:45.860Z,3.27
2019-04-16T01:32:45.612Z,3.24
2019-04-16T01:33:46.597Z,3.21
2019-04-16T01:34:47.136Z,3.19
2019-04-16T01:35:51.019Z,3.17
2019-04-16T01:36:46.104Z,3.13
2019-04-16T01:37:46.107Z,3.10
2019-04-16T01:38:46.013Z,3.09
2019-04-16T01:39:47.743Z,3.03
2019-04-16T01:40:47.275Z,3.00
2019-04-16T01:41:46.244Z,2.98
2019-04-16T01:42:46.517Z,2.93
2019-04-16T01:43:46.091Z,2.91
2019-04-16T01:44:46.058Z,2.90
2019-04-16T01:45:46.047Z,2.88
2019-04-16T01:46:45.440Z,2.87
2019-04-16T01:47:44.794Z,2.86
2019-04-16T01:48:46.031Z,2.83
2019-04-16T01:49:45.979Z,2.81
2019-04-16T01:50:45.989Z,2.81
2019-04-16T01:51:47.437Z,2.80
2019-04-16T01:52:49.444Z,2.76
2019-04-16T01:53:46.209Z,2.73
2019-04-16T01:54:45.599Z,2.70
2019-04-16T01:55:46.075Z,2.67
2019-04-16T01:56:46.122Z,2.66
2019-04-16T01:57:45.737Z,2.63
2019-04-16T01:58:46.244Z,2.59
2019-04-16T01:59:46.217Z,2.57
2019-04-16T02:00:46.103Z,2.54
2019-04-16T02:01:45.858Z,2.54
2019-04-16T02:02:46.392Z,2.53
2019-04-16T02:03:48.899Z,2.50
2019-04-16T02:04:48.545Z,2.48
2019-04-16T02:05:45.661Z,2.45
2019-04-16T02:06:46.199Z,2.44
2019-04-16T02:07:46.207Z,2.40
2019-04-16T02:08:45.763Z,2.38
2019-04-16T02:09:46.119Z,2.37
2019-04-16T02:10:46.327Z,2.36
2019-04-16T02:11:46.120Z,2.36
2019-04-16T02:12:45.821Z,2.34
2019-04-16T02:13:46.745Z,2.35
2019-04-16T02:14:47.335Z,2.33
2019-04-16T02:15:46.264Z,2.34
2019-04-16T02:16:46.261Z,2.34
2019-04-16T02:17:46.263Z,2.33
2019-04-16T02:18:46.114Z,2.32
2019-04-16T02:19:46.189Z,2.31
2019-04-16T02:20:45.777Z,2.31
2019-04-16T02:21:46.192Z,2.28
2019-04-16T02:22:46.313Z,2.27
2019-04-16T02:23:47.992Z,2.25
2019-04-16T02:24:47.868Z,2.24
2019-04-16T02:25:48.480Z,2.21
2019-04-16T02:26:46.227Z,2.20
2019-04-16T02:27:46.129Z,2.19
2019-04-16T02:28:46.662Z,2.18
2019-04-16T02:29:46.143Z,2.16
2019-04-16T02:30:46.259Z,2.14
2019-04-16T02:31:48.029Z,2.11
2019-04-16T02:32:45.757Z,2.12
2019-04-16T02:33:46.182Z,2.11
2019-04-16T02:34:45.620Z,2.08
2019-04-16T02:35:46.091Z,2.08
2019-04-16T02:36:46.095Z,2.06
2019-04-16T02:37:46.320Z,2.06
2019-04-16T02:38:52.404Z,2.04
2019-04-16T02:39:48.246Z,2.04
2019-04-16T02:40:51.623Z,2.05
2019-04-16T02:41:46.129Z,2.05
2019-04-16T02:42:46.246Z,2.07
2019-04-16T02:43:45.529Z,2.08
2019-04-16T02:44:50.089Z,2.08
2019-04-16T02:45:45.952Z,2.08
2019-04-16T02:46:46.263Z,2.06
2019-04-16T02:47:46.284Z,2.05
2019-04-16T02:48:49.999Z,2.05
2019-04-16T02:49:45.886Z,2.03
2019-04-16T02:50:45.683Z,2.02
2019-04-16T02:51:46.192Z,2.00
2019-04-16T02:52:50.014Z,1.99
2019-04-16T02:53:45.717Z,1.95
2019-04-16T02:54:46.113Z,1.95
2019-04-16T02:55:46.326Z,1.95
2019-04-16T02:56:51.715Z,1.94
2019-04-16T02:57:46.343Z,1.93
2019-04-16T02:58:45.951Z,1.88
2019-04-16T02:59:47.377Z,1.86
2019-04-16T03:00:49.576Z,1.84
2019-04-16T03:01:46.168Z,1.83
2019-04-16T03:02:46.270Z,1.82
2019-04-16T03:03:46.490Z,1.81
2019-04-16T03:04:46.801Z,1.81
2019-04-16T03:05:46.087Z,1.82
2019-04-16T03:06:46.088Z,1.84
2019-04-16T03:07:46.307Z,1.83
2019-04-16T03:08:46.207Z,1.83
2019-04-16T03:09:45.804Z,1.82
2019-04-16T03:10:46.197Z,1.79
2019-04-16T03:11:48.990Z,1.78
2019-04-16T03:12:46.244Z,1.75
2019-04-16T03:13:45.836Z,1.75
2019-04-16T03:14:46.158Z,1.75
2019-04-16T03:15:45.950Z,1.73
2019-04-16T03:16:46.270Z,1.72
2019-04-16T03:17:46.066Z,1.70
2019-04-16T03:18:47.535Z,1.68
2019-04-16T03:19:50.914Z,1.64
2019-04-16T03:20:46.592Z,1.62
2019-04-16T03:21:48.237Z,1.58
2019-04-16T03:22:46.198Z,1.55
2019-04-16T03:23:46.202Z,1.50
2019-04-16T03:24:46.624Z,1.49
2019-04-16T03:25:46.011Z,1.45
2019-04-16T03:26:47.556Z,1.45
2019-04-16T03:27:46.248Z,1.44
2019-04-16T03:28:46.245Z,1.41
2019-04-16T03:29:46.271Z,1.39
2019-04-16T03:30:46.167Z,1.37
2019-04-16T03:31:45.758Z,1.34
2019-04-16T03:32:46.371Z,1.33
2019-04-16T03:33:50.239Z,1.32
2019-04-16T03:34:46.396Z,1.30
2019-04-16T03:35:46.398Z,1.30
2019-04-16T03:36:46.091Z,1.31
2019-04-16T03:37:46.506Z,1.31
2019-04-16T03:38:46.309Z,1.31
2019-04-16T03:39:46.212Z,1.30
2019-04-16T03:40:45.984Z,1.30
2019-04-16T03:41:45.818Z,1.27
2019-04-16T03:42:46.337Z,1.28
2019-04-16T03:43:46.036Z,1.28
2019-04-16T03:44:45.828Z,1.25
2019-04-16T03:45:45.863Z,1.23
2019-04-16T03:46:46.741Z,1.24
2019-04-16T03:47:50.869Z,1.23
2019-04-16T03:48:46.171Z,1.22
2019-04-16T03:49:45.670Z,1.23
2019-04-16T03:50:46.388Z,1.21
2019-04-16T03:51:45.881Z,1.20
2019-04-16T03:52:46.210Z,1.20
2019-04-16T03:53:46.557Z,1.21
2019-04-16T03:54:46.312Z,1.19
2019-04-16T03:55:46.265Z,1.21
2019-04-16T03:56:46.126Z,1.19
2019-04-16T03:57:46.246Z,1.17
2019-04-16T03:58:45.933Z,1.17
2019-04-16T03:59:45.851Z,1.16
2019-04-16T04:00:46.283Z,1.15
2019-04-16T04:01:46.837Z,1.14
2019-04-16T04:02:46.471Z,1.12
2019-04-16T04:03:46.376Z,1.13
2019-04-16T04:04:46.280Z,1.11
2019-04-16T04:05:46.290Z,1.11
2019-04-16T04:06:46.300Z,1.10
2019-04-16T04:07:45.793Z,1.10
2019-04-16T04:08:48.312Z,1.09
2019-04-16T04:09:46.220Z,1.09
2019-04-16T04:10:46.325Z,1.08
2019-04-16T04:11:46.845Z,1.08
2019-04-16T04:12:46.566Z,1.05
2019-04-16T04:13:49.744Z,1.06
2019-04-16T04:14:46.344Z,1.06
2019-04-16T04:15:46.152Z,1.06
2019-04-16T04:16:46.462Z,1.06
2019-04-16T04:17:46.159Z,1.08
2019-04-16T04:18:46.278Z,1.05
2019-04-16T04:19:46.869Z,1.04
2019-04-16T04:20:49.634Z,1.02
2019-04-16T04:21:46.186Z,0.98
2019-04-16T04:22:46.188Z,0.95
2019-04-16T04:23:46.318Z,0.91
2019-04-16T04:24:46.229Z,0.89
2019-04-16T04:25:46.213Z,0.86
2019-04-16T04:26:46.123Z,0.86
2019-04-16T04:27:47.641Z,0.83
2019-04-16T04:28:48.589Z,0.81
2019-04-16T04:29:46.519Z,0.79
2019-04-16T04:30:48.829Z,0.78
2019-04-16T04:31:46.398Z,0.76
2019-04-16T04:32:47.686Z,0.74
2019-04-16T04:33:46.595Z,0.74
2019-04-16T04:34:48.742Z,0.71
2019-04-16T04:35:47.467Z,0.70
2019-04-16T04:36:47.354Z,0.69
2019-04-16T04:37:46.553Z,0.69
2019-04-16T04:38:46.204Z,0.68
2019-04-16T04:39:46.317Z,0.68
2019-04-16T04:40:50.548Z,0.66
2019-04-16T04:41:46.750Z,0.68
2019-04-16T04:42:46.122Z,0.68
2019-04-16T04:43:46.236Z,0.67
2019-04-16T04:44:47.052Z,0.68
2019-04-16T04:45:45.830Z,0.67
2019-04-16T04:46:46.900Z,0.68
2019-04-16T04:47:50.998Z,0.67
2019-04-16T04:48:46.066Z,0.67
2019-04-16T04:49:46.169Z,0.65
2019-04-16T04:50:46.489Z,0.67
2019-04-16T04:51:48.960Z,0.64
2019-04-16T04:52:46.839Z,0.65
2019-04-16T04:53:47.577Z,0.64
2019-04-16T04:54:46.206Z,0.63
2019-04-16T04:55:46.322Z,0.64
2019-04-16T04:56:46.422Z,0.63
2019-04-16T04:57:46.070Z,0.64
2019-04-16T04:58:46.658Z,0.64
2019-04-16T04:59:44.902Z,0.63
2019-04-16T05:00:44.911Z,0.63
2019-04-16T05:01:45.024Z,0.62
2019-04-16T05:02:44.918Z,0.63
2019-04-16T05:03:47.405Z,0.63
2019-04-16T05:04:45.659Z,0.63
2019-04-16T05:05:46.273Z,0.64
2019-04-16T05:06:46.198Z,0.65
2019-04-16T05:07:45.886Z,0.66
2019-04-16T05:08:46.206Z,0.68
2019-04-16T05:09:46.411Z,0.70
2019-04-16T05:10:58.361Z,0.74
2019-04-16T05:11:48.501Z,0.77
2019-04-16T05:12:46.339Z,0.81
2019-04-16T05:13:46.233Z,0.83
2019-04-16T05:14:46.258Z,0.86
2019-04-16T05:15:45.024Z,0.87
2019-04-16T05:16:46.561Z,0.92
2019-04-16T05:17:46.368Z,0.94
2019-04-16T05:18:46.364Z,0.96
2019-04-16T05:19:46.682Z,1.01
2019-04-16T05:20:47.034Z,1.03
2019-04-16T05:21:49.629Z,1.05
2019-04-16T05:22:46.502Z,1.07
2019-04-16T05:23:46.506Z,1.12
2019-04-16T05:24:46.725Z,1.15
2019-04-16T05:25:46.216Z,1.16
2019-04-16T05:26:46.424Z,1.20
2019-04-16T05:27:45.806Z,1.25
2019-04-16T05:28:46.510Z,1.26
2019-04-16T05:29:48.907Z,1.27
2019-04-16T05:30:46.144Z,1.27
2019-04-16T05:31:46.360Z,1.29
2019-04-16T05:32:45.954Z,1.32
2019-04-16T05:33:46.264Z,1.36
2019-04-16T05:34:46.162Z,1.38
2019-04-16T05:35:46.284Z,1.41
2019-04-16T05:36:47.729Z,1.48
2019-04-16T05:37:48.565Z,1.51
2019-04-16T05:38:46.612Z,1.53
2019-04-16T05:39:46.716Z,1.57
2019-04-16T05:40:46.420Z,1.61
2019-04-16T05:41:47.455Z,1.62
2019-04-16T05:42:45.808Z,1.65
2019-04-16T05:43:46.441Z,1.72
2019-04-16T05:44:46.134Z,1.77
2019-04-16T05:45:46.350Z,1.81
2019-04-16T05:46:46.894Z,1.85
2019-04-16T05:47:49.042Z,1.91
2019-04-16T05:48:44.927Z,1.94
2019-04-16T05:49:46.371Z,1.98
2019-04-16T05:50:46.174Z,2.04
2019-04-16T05:51:46.404Z,2.06
2019-04-16T05:52:46.296Z,2.09
2019-04-16T05:53:46.395Z,2.13
2019-04-16T05:54:46.317Z,2.17
2019-04-16T05:55:49.672Z,2.22
2019-04-16T05:56:46.422Z,2.27
2019-04-16T05:57:45.818Z,2.29
2019-04-16T05:58:45.094Z,2.34
2019-04-16T05:59:46.135Z,2.39
2019-04-16T06:00:45.941Z,2.44
2019-04-16T06:01:46.167Z,2.50
2019-04-16T06:02:49.530Z,2.56
2019-04-16T06:03:46.353Z,2.62
2019-04-16T06:04:46.370Z,2.72
2019-04-16T06:05:46.696Z,2.83
2019-04-16T06:06:46.288Z,2.96
2019-04-16T06:07:46.426Z,3.01
2019-04-16T06:08:46.409Z,3.11
2019-04-16T06:09:46.605Z,3.22
2019-04-16T06:10:49.770Z,3.32
2019-04-16T06:11:46.617Z,3.41
2019-04-16T06:12:45.921Z,3.55
2019-04-16T06:13:46.231Z,3.59
2019-04-16T06:14:49.343Z,3.60
2019-04-16T06:15:47.169Z,3.55
2019-04-16T06:16:46.251Z,3.54
2019-04-16T06:17:46.051Z,3.60
2019-04-16T06:18:46.469Z,3.67
2019-04-16T06:19:47.384Z,3.74
2019-04-16T06:20:45.974Z,3.80
2019-04-16T06:21:46.184Z,3.85
2019-04-16T06:22:46.513Z,3.99
2019-04-16T06:23:48.241Z,4.05
2019-04-16T06:24:46.202Z,4.08
2019-04-16T06:25:46.631Z,4.12
2019-04-16T06:26:47.500Z,4.19
2019-04-16T06:27:46.423Z,4.25
2019-04-16T06:28:45.816Z,4.28
2019-04-16T06:29:47.202Z,4.27
2019-04-16T06:30:45.834Z,4.19
2019-04-16T06:31:46.370Z,4.10
2019-04-16T06:32:46.462Z,4.12
2019-04-16T06:33:46.172Z,4.10
2019-04-16T06:34:46.581Z,4.13
2019-04-16T06:35:46.388Z,4.23
2019-04-16T06:36:46.290Z,4.34
2019-04-16T06:37:46.287Z,4.44
2019-04-16T06:38:46.513Z,4.53
2019-04-16T06:39:46.308Z,4.54
2019-04-16T06:40:44.976Z,4.53
2019-04-16T06:41:48.360Z,4.52
2019-04-16T06:42:46.425Z,4.56
2019-04-16T06:43:46.326Z,4.66
2019-04-16T06:44:46.342Z,4.67
2019-04-16T06:45:46.248Z,4.63
2019-04-16T06:46:46.364Z,4.62
2019-04-16T06:47:46.358Z,4.67
2019-04-16T06:48:46.171Z,4.71
2019-04-16T06:49:48.225Z,4.68
2019-04-16T06:50:46.182Z,4.70
2019-04-16T06:51:46.172Z,4.77
2019-04-16T06:52:48.866Z,4.89
2019-04-16T06:53:46.615Z,4.92
2019-04-16T06:54:46.305Z,4.98
2019-04-16T06:55:46.515Z,5.08
2019-04-16T06:56:46.546Z,5.23
2019-04-16T06:57:46.125Z,5.34
2019-04-16T06:58:51.384Z,5.42
2019-04-16T06:59:46.468Z,5.49
2019-04-16T07:00:45.938Z,5.58
2019-04-16T07:01:46.454Z,5.63
2019-04-16T07:03:01.812Z,5.62
2019-04-16T07:03:46.479Z,5.60
2019-04-16T07:04:46.604Z,5.61
2019-04-16T07:05:46.582Z,5.64
2019-04-16T07:06:46.395Z,5.71
2019-04-16T07:07:46.912Z,5.79
2019-04-16T07:08:49.853Z,5.83
2019-04-16T07:09:46.407Z,5.85
2019-04-16T07:10:45.700Z,5.89
2019-04-16T07:11:54.198Z,5.90
2019-04-16T07:12:46.473Z,5.96
2019-04-16T07:13:46.333Z,5.94
2019-04-16T07:14:48.513Z,5.96
2019-04-16T07:15:46.556Z,6.02
2019-04-16T07:16:46.460Z,6.12
2019-04-16T07:17:46.354Z,6.21
2019-04-16T07:18:46.478Z,6.25
2019-04-16T07:19:46.584Z,6.30
2019-04-16T07:20:46.622Z,6.41
2019-04-16T07:21:49.617Z,6.36
2019-04-16T07:22:46.919Z,6.36
2019-04-16T07:23:46.948Z,6.46
2019-04-16T07:24:46.718Z,6.55
2019-04-16T07:25:46.987Z,6.67
2019-04-16T07:26:48.091Z,6.70
2019-04-16T07:27:46.427Z,6.77
2019-04-16T07:28:46.330Z,6.74
2019-04-16T07:29:46.862Z,6.75
2019-04-16T07:30:45.885Z,6.74
2019-04-16T07:31:46.042Z,6.74
2019-04-16T07:32:46.464Z,6.79
2019-04-16T07:33:46.880Z,6.90
2019-04-16T07:34:46.495Z,7.06
2019-04-16T07:35:46.715Z,7.26
2019-04-16T07:36:46.550Z,7.35
2019-04-16T07:37:46.498Z,7.42
2019-04-16T07:38:47.185Z,7.42
2019-04-16T07:39:46.643Z,7.40
2019-04-16T07:40:45.827Z,7.40
2019-04-16T07:41:45.101Z,7.34
2019-04-16T07:42:52.062Z,7.32
2019-04-16T07:43:46.247Z,7.34
2019-04-16T07:44:46.463Z,7.38
2019-04-16T07:45:48.275Z,7.39
2019-04-16T07:46:47.056Z,7.31
2019-04-16T07:47:48.335Z,7.26
2019-04-16T07:48:46.272Z,7.28
2019-04-16T07:49:46.492Z,7.34
2019-04-16T07:50:45.776Z,7.48
2019-04-16T07:51:46.310Z,7.65
2019-04-16T07:52:46.616Z,7.77
2019-04-16T07:53:48.061Z,7.88
2019-04-16T07:54:45.906Z,7.95
2019-04-16T07:55:46.748Z,7.95
2019-04-16T07:56:46.322Z,7.89
2019-04-16T07:57:46.440Z,7.89
2019-04-16T07:58:46.448Z,7.92
2019-04-16T07:59:46.135Z,7.96
2019-04-16T08:00:45.854Z,8.06
2019-04-16T08:01:47.785Z,8.14
2019-04-16T08:02:45.232Z,8.19
2019-04-16T08:03:46.580Z,8.26
2019-04-16T08:04:46.169Z,8.34
2019-04-16T08:05:46.598Z,8.50
2019-04-16T08:06:47.162Z,8.65
2019-04-16T08:07:46.513Z,8.78
2019-04-16T08:08:46.531Z,8.75
2019-04-16T08:09:46.314Z,8.76
2019-04-16T08:10:46.021Z,8.76
2019-04-16T08:11:46.438Z,8.70
2019-04-16T08:12:46.443Z,8.58
2019-04-16T08:13:46.352Z,8.65
2019-04-16T08:14:46.351Z,8.67
2019-04-16T08:15:46.361Z,8.72
2019-04-16T08:16:47.270Z,8.69
2019-04-16T08:17:46.389Z,8.73
2019-04-16T08:18:45.869Z,8.72
2019-04-16T08:19:49.052Z,8.73
2019-04-16T08:20:59.996Z,8.79
2019-04-16T08:21:46.393Z,8.89
2019-04-16T08:22:47.670Z,9.08
2019-04-16T08:23:51.522Z,9.16
2019-04-16T08:24:47.444Z,9.29
2019-04-16T08:25:46.026Z,9.30
2019-04-16T08:26:46.554Z,9.29
2019-04-16T08:27:47.250Z,9.39
2019-04-16T08:28:46.576Z,9.55
2019-04-16T08:29:46.310Z,9.68
2019-04-16T08:30:46.463Z,9.68
2019-04-16T08:31:46.471Z,9.61
2019-04-16T08:32:48.938Z,9.60
2019-04-16T08:33:46.595Z,9.68
2019-04-16T08:34:46.913Z,9.70
2019-04-16T08:35:47.642Z,9.71
2019-04-16T08:36:46.405Z,9.82
2019-04-16T08:37:49.084Z,9.84
2019-04-16T08:38:47.765Z,9.92
2019-04-16T08:39:46.522Z,9.75
2019-04-16T08:40:46.883Z,9.60
2019-04-16T08:41:46.441Z,9.70
2019-04-16T08:42:46.678Z,9.91
2019-04-16T08:43:46.460Z,10.04
2019-04-16T08:44:46.774Z,10.07
2019-04-16T08:45:46.274Z,10.10
2019-04-16T08:46:46.378Z,10.13
2019-04-16T08:47:46.472Z,10.23
2019-04-16T08:48:48.916Z,10.37
2019-04-16T08:49:46.503Z,10.38
2019-04-16T08:50:49.112Z,10.28
2019-04-16T08:51:45.286Z,10.33
2019-04-16T08:52:46.509Z,10.34
2019-04-16T08:53:47.303Z,10.33
2019-04-16T08:54:49.999Z,10.43
2019-04-16T08:55:46.332Z,10.43
2019-04-16T08:56:46.556Z,10.40
2019-04-16T08:57:47.068Z,10.40
2019-04-16T08:58:46.577Z,10.39
2019-04-16T08:59:46.469Z,10.46
2019-04-16T09:00:46.570Z,10.64
2019-04-16T09:01:46.266Z,10.84
2019-04-16T09:02:46.584Z,11.15
2019-04-16T09:03:46.598Z,11.35
2019-04-16T09:04:46.398Z,11.46
2019-04-16T09:05:46.635Z,11.47
2019-04-16T09:06:47.301Z,11.53
2019-04-16T09:07:50.663Z,11.54
2019-04-16T09:08:46.541Z,11.57
2019-04-16T09:09:46.631Z,11.58
2019-04-16T09:10:46.040Z,11.58
2019-04-16T09:11:48.591Z,11.54
2019-04-16T09:12:55.944Z,11.56
2019-04-16T09:13:48.175Z,11.49
2019-04-16T09:14:46.885Z,11.56
2019-04-16T09:15:46.584Z,11.69
2019-04-16T09:16:46.275Z,11.72
2019-04-16T09:17:46.082Z,11.78
2019-04-16T09:18:46.501Z,11.37
2019-04-16T09:19:46.824Z,11.28
2019-04-16T09:20:45.192Z,11.43
2019-04-16T09:21:46.738Z,11.61
2019-04-16T09:22:49.324Z,11.69
2019-04-16T09:23:46.452Z,11.75
2019-04-16T09:24:46.634Z,11.64
2019-04-16T09:25:46.866Z,11.50
2019-04-16T09:26:46.857Z,11.68
2019-04-16T09:27:46.669Z,11.90
2019-04-16T09:28:46.673Z,12.06
2019-04-16T09:29:46.270Z,12.12
2019-04-16T09:30:46.666Z,12.29
2019-04-16T09:31:46.654Z,12.40
2019-04-16T09:32:47.216Z,12.36
2019-04-16T09:33:47.108Z,12.35
2019-04-16T09:34:46.716Z,12.45
2019-04-16T09:35:46.553Z,12.65
2019-04-16T09:36:46.529Z,12.84
2019-04-16T09:37:46.423Z,12.96
2019-04-16T09:38:46.480Z,13.14
2019-04-16T09:39:46.657Z,13.33
2019-04-16T09:40:48.921Z,13.24
2019-04-16T09:41:46.665Z,13.00
2019-04-16T09:42:46.968Z,12.82
2019-04-16T09:43:46.572Z,12.67
2019-04-16T09:44:46.677Z,12.39
2019-04-16T09:45:46.702Z,12.22
2019-04-16T09:46:50.889Z,12.15
2019-04-16T09:47:46.090Z,12.23
2019-04-16T09:48:49.797Z,12.40
2019-04-16T09:49:46.408Z,12.49
2019-04-16T09:50:47.881Z,12.68
2019-04-16T09:51:46.665Z,12.78
2019-04-16T09:52:47.150Z,12.86
2019-04-16T09:53:46.640Z,12.94
2019-04-16T09:54:46.559Z,12.85
2019-04-16T09:55:47.515Z,12.80
2019-04-16T09:56:46.669Z,12.81
2019-04-16T09:57:46.260Z,12.81
2019-04-16T09:58:46.193Z,12.98
2019-04-16T09:59:47.745Z,13.12
2019-04-16T10:00:47.638Z,13.10
2019-04-16T10:01:49.444Z,13.06
2019-04-16T10:02:46.522Z,13.04
2019-04-16T10:03:46.526Z,12.99
2019-04-16T10:04:46.676Z,13.02
2019-04-16T10:05:46.530Z,12.85
2019-04-16T10:06:46.843Z,12.56
2019-04-16T10:07:46.952Z,12.65
2019-04-16T10:08:46.544Z,12.69
2019-04-16T10:09:46.666Z,12.65
2019-04-16T10:10:46.250Z,12.67
2019-04-16T10:11:46.265Z,12.69
2019-04-16T10:12:46.571Z,12.69
2019-04-16T10:13:46.576Z,12.73
2019-04-16T10:14:46.180Z,12.92
2019-04-16T10:15:46.827Z,13.09
2019-04-16T10:16:46.719Z,13.09
2019-04-16T10:17:46.723Z,13.02
2019-04-16T10:18:46.762Z,12.88
2019-04-16T10:19:46.726Z,12.91
2019-04-16T10:20:46.253Z,13.08
2019-04-16T10:21:46.790Z,13.31
2019-04-16T10:22:46.233Z,13.45
2019-04-16T10:23:46.259Z,13.46
2019-04-16T10:24:47.196Z,13.44
2019-04-16T10:25:46.684Z,13.49
2019-04-16T10:26:46.778Z,13.40
2019-04-16T10:27:47.095Z,13.48
2019-04-16T10:28:46.596Z,13.62
2019-04-16T10:29:46.706Z,13.83
2019-04-16T10:30:45.378Z,13.99
2019-04-16T10:31:46.830Z,14.09
2019-04-16T10:32:46.837Z,13.97
2019-04-16T10:33:47.042Z,13.96
2019-04-16T10:34:46.548Z,14.11
2019-04-16T10:35:46.660Z,14.14
2019-04-16T10:36:46.966Z,14.15
2019-04-16T10:37:46.273Z,14.07
2019-04-16T10:38:45.441Z,14.04
2019-04-16T10:39:46.467Z,13.99
2019-04-16T10:40:46.062Z,13.99
2019-04-16T10:41:46.893Z,14.06
2019-04-16T10:42:46.285Z,14.11
2019-04-16T10:43:46.208Z,14.20
2019-04-16T10:44:46.404Z,14.33
2019-04-16T10:45:46.735Z,14.05
2019-04-16T10:46:46.796Z,13.94
2019-04-16T10:47:46.629Z,14.07
2019-04-16T10:48:46.646Z,14.32
2019-04-16T10:49:47.058Z,14.45
2019-04-16T10:50:45.997Z,14.50
2019-04-16T10:51:46.549Z,14.60
2019-04-16T10:52:46.790Z,14.51
2019-04-16T10:53:46.996Z,14.46
2019-04-16T10:54:46.602Z,14.15
2019-04-16T10:55:46.691Z,13.99
2019-04-16T10:56:46.706Z,13.89
2019-04-16T10:57:46.490Z,13.89
2019-04-16T10:58:46.596Z,13.94
2019-04-16T10:59:46.294Z,14.17
2019-04-16T11:00:45.411Z,14.34
2019-04-16T11:01:46.722Z,14.06
2019-04-16T11:02:46.961Z,14.08
2019-04-16T11:03:46.740Z,14.12
2019-04-16T11:04:46.540Z,14.34
2019-04-16T11:05:46.474Z,14.15
2019-04-16T11:06:46.668Z,14.11
2019-04-16T11:07:46.672Z,14.23
2019-04-16T11:08:46.992Z,14.39
2019-04-16T11:09:46.817Z,14.27
2019-04-16T11:10:46.474Z,14.05
2019-04-16T11:11:47.012Z,14.12
2019-04-16T11:12:46.975Z,14.23
2019-04-16T11:13:59.354Z,14.08
2019-04-16T11:14:47.072Z,13.99
2019-04-16T11:15:46.741Z,14.13
2019-04-16T11:16:46.877Z,14.25
2019-04-16T11:17:46.778Z,14.36
2019-04-16T11:18:46.455Z,14.57
2019-04-16T11:19:46.953Z,14.36
2019-04-16T11:20:46.338Z,14.42
2019-04-16T11:21:47.190Z,14.57
2019-04-16T11:22:46.884Z,14.68
2019-04-16T11:23:46.821Z,14.45
2019-04-16T11:24:46.812Z,14.25
2019-04-16T11:25:47.403Z,14.02
2019-04-16T11:26:46.693Z,14.11
2019-04-16T11:27:46.946Z,14.25
2019-04-16T11:28:47.011Z,14.29
2019-04-16T11:29:46.849Z,14.18
2019-04-16T11:30:48.781Z,14.10
2019-04-16T11:31:46.365Z,14.19
2019-04-16T11:32:47.349Z,14.27
2019-04-16T11:33:46.714Z,14.35
2019-04-16T11:34:46.759Z,14.32
2019-04-16T11:35:47.514Z,14.35
2019-04-16T11:36:46.797Z,14.53
2019-04-16T11:37:46.773Z,14.38
2019-04-16T11:38:46.901Z,14.23
2019-04-16T11:39:46.902Z,14.27
2019-04-16T11:40:46.175Z,14.19
2019-04-16T11:41:46.520Z,14.19
2019-04-16T11:42:47.029Z,14.09
2019-04-16T11:43:46.941Z,14.18
2019-04-16T11:44:50.054Z,14.40
2019-04-16T11:45:46.746Z,14.57
2019-04-16T11:46:46.658Z,14.66
2019-04-16T11:47:48.273Z,14.68
2019-04-16T11:48:50.087Z,14.81
2019-04-16T11:49:46.976Z,14.92
2019-04-16T11:50:46.609Z,14.93
2019-04-16T11:51:46.561Z,14.98
2019-04-16T11:52:46.426Z,15.05
2019-04-16T11:53:46.692Z,15.10
2019-04-16T11:54:47.692Z,15.16
2019-04-16T11:55:46.711Z,15.03
2019-04-16T11:56:47.250Z,14.95
2019-04-16T11:57:46.129Z,14.95
2019-04-16T11:58:46.418Z,14.95
2019-04-16T11:59:46.683Z,14.73
2019-04-16T12:00:46.751Z,14.65
2019-04-16T12:01:46.658Z,14.63
2019-04-16T12:02:46.844Z,14.53
2019-04-16T12:03:46.979Z,14.68
2019-04-16T12:04:47.334Z,14.81
2019-04-16T12:05:46.495Z,14.74
2019-04-16T12:06:47.705Z,14.70
2019-04-16T12:07:47.208Z,14.74
2019-04-16T12:08:46.797Z,14.86
2019-04-16T12:09:47.101Z,14.97
2019-04-16T12:10:46.181Z,15.11
2019-04-16T12:11:47.032Z,15.21
2019-04-16T12:12:46.526Z,15.21
2019-04-16T12:13:46.242Z,15.26
2019-04-16T12:14:46.796Z,15.37
2019-04-16T12:15:46.955Z,15.62
2019-04-16T12:16:47.076Z,15.78
2019-04-16T12:17:46.865Z,15.80
2019-04-16T12:18:46.294Z,15.63
2019-04-16T12:19:46.583Z,15.55
2019-04-16T12:20:46.392Z,15.39
2019-04-16T12:21:46.853Z,15.30
2019-04-16T12:22:46.748Z,15.41
2019-04-16T12:23:49.789Z,15.52
2019-04-16T12:24:46.491Z,15.52
2019-04-16T12:25:47.037Z,15.63
2019-04-16T12:26:46.943Z,15.77
2019-04-16T12:27:46.420Z,15.80
2019-04-16T12:28:47.059Z,15.90
2019-04-16T12:29:46.892Z,16.01
2019-04-16T12:30:46.360Z,16.14
2019-04-16T12:31:46.877Z,16.21
2019-04-16T12:32:46.961Z,16.26
2019-04-16T12:33:46.572Z,16.11
2019-04-16T12:34:46.873Z,15.65
2019-04-16T12:35:46.489Z,15.45
2019-04-16T12:36:47.445Z,15.42
2019-04-16T12:37:46.601Z,15.49
2019-04-16T12:38:46.940Z,15.46
2019-04-16T12:39:46.870Z,15.49
2019-04-16T12:40:46.317Z,15.68
2019-04-16T12:41:46.947Z,15.84
2019-04-16T12:42:47.054Z,15.72
2019-04-16T12:43:50.812Z,15.30
2019-04-16T12:44:47.089Z,15.17
2019-04-16T12:45:47.101Z,15.17
2019-04-16T12:46:46.820Z,15.27
2019-04-16T12:47:47.104Z,15.42
2019-04-16T12:48:46.775Z,15.52
2019-04-16T12:49:47.621Z,15.69
2019-04-16T12:50:46.505Z,15.58
2019-04-16T12:51:47.057Z,15.57
2019-04-16T12:52:47.192Z,15.29
2019-04-16T12:53:52.834Z,15.12
2019-04-16T12:54:47.139Z,15.21
2019-04-16T12:55:46.723Z,15.35
2019-04-16T12:56:46.531Z,15.41
2019-04-16T12:57:47.886Z,15.49
2019-04-16T12:58:50.384Z,15.58
2019-04-16T12:59:48.788Z,15.52
2019-04-16T13:00:46.541Z,15.44
2019-04-16T13:01:47.064Z,15.56
2019-04-16T13:02:47.074Z,15.73
2019-04-16T13:03:52.265Z,15.49
2019-04-16T13:04:48.750Z,15.56
2019-04-16T13:05:47.109Z,15.60
2019-04-16T13:06:46.781Z,15.37
2019-04-16T13:07:47.119Z,15.43
2019-04-16T13:08:47.752Z,15.20
2019-04-16T13:09:47.029Z,15.41